Time;durP1;ratioP1;P1;durP2;ratioP2;P2;SDS_P1;SDS_P2;PMS_P1;PMS_P2;Temp;Humidity;BMP_temperature;BMP_pressure;BME280_temperature;BME280_humidity;BME280_pressure;Samples;Min_cycle;Max_cycle;Signal;HPM_P1;HPM_P2
2022/06/06 00:00:18;;;;;;;;;;;;;;;26.61;42.52;99297.59;5032639;28;19916;-48
2022/06/06 00:02:44;;;;;;;;;;;;;;;26.61;42.64;99292.13;5032544;28;19932;-47
2022/06/06 00:05:14;;;;;;;;;;;;;;;26.55;42.87;99290.66;5032923;28;19909;-47
2022/06/06 00:07:39;;;;;;;;;;;;;;;26.47;42.95;99295.78;5031159;28;20505;-46
2022/06/06 00:10:05;;;;;;;;;;;;;;;26.30;43.36;99291.13;5033057;28;19961;-47
2022/06/06 00:12:30;;;;;;;;;;;;;;;26.27;43.44;99293.69;5032731;28;19944;-47
2022/06/06 00:14:55;;;;;;;;;;;;;;;26.40;43.42;99289.22;5032836;28;19920;-46
2022/06/06 00:17:21;;;;;;;;;;;;;;;26.39;43.34;99282.97;5032689;28;20458;-48
2022/06/06 00:19:46;;;;;;;;;;;;;;;26.43;42.96;99289.38;5032840;28;19909;-49
2022/06/06 00:22:11;;;;;;;;;;;;;;;26.24;43.35;99294.34;5046211;28;19912;-47
2022/06/06 00:24:36;;;;;;;;;;;;;;;26.23;43.47;99290.00;5052145;28;20376;-46
2022/06/06 00:27:04;;;;;;;;;;;;;;;26.07;43.62;99289.66;5052663;28;20003;-47
2022/06/06 00:29:34;;;;;;;;;;;;;;;26.22;43.50;99289.19;5052591;28;20373;-46
2022/06/06 00:34:49;;;;;;;;;;;;;;;26.10;43.82;99281.66;5051984;28;20372;-46
2022/06/06 00:37:16;;;;;;;;;;;;;;;26.15;43.57;99286.13;5052390;28;19913;-47
2022/06/06 00:39:42;;;;;;;;;;;;;;;26.03;43.71;99281.31;5052421;28;19908;-48
2022/06/06 00:42:17;;;;;;;;;;;;;;;26.03;43.55;99278.56;5052221;28;19915;-46
2022/06/06 00:44:43;;;;;;;;;;;;;;;26.10;43.83;99278.09;5050824;28;19975;-48
2022/06/06 00:47:13;;;;;;;;;;;;;;;25.94;44.06;99269.56;5052147;28;19909;-48
2022/06/06 00:49:41;;;;;;;;;;;;;;;25.83;44.28;99260.84;5052309;28;19909;-47
2022/06/06 00:52:14;;;;;;;;;;;;;;;25.98;44.10;99267.03;5052060;28;19912;-47
2022/06/06 00:54:40;;;;;;;;;;;;;;;25.88;44.15;99255.25;5052296;28;19923;-47
2022/06/06 00:57:08;;;;;;;;;;;;;;;25.98;44.08;99261.56;5051934;28;20331;-47
2022/06/06 00:59:36;;;;;;;;;;;;;;;26.03;44.10;99264.94;5051908;28;19912;-47
2022/06/06 01:02:01;;;;;;;;;;;;;;;25.87;44.18;99258.31;5051749;28;19943;-47
2022/06/06 01:04:28;;;;;;;;;;;;;;;25.91;44.17;99249.22;5052150;28;19978;-46
2022/06/06 01:06:54;;;;;;;;;;;;;;;25.96;43.95;99255.63;5051785;28;20349;-47
2022/06/06 01:09:21;;;;;;;;;;;;;;;25.90;44.61;99252.22;5051445;28;19940;-50
2022/06/06 01:11:48;;;;;;;;;;;;;;;25.92;44.45;99255.47;5051656;28;19958;-47
2022/06/06 01:14:14;;;;;;;;;;;;;;;25.77;44.75;99253.94;5051548;28;19917;-47
2022/06/06 01:16:40;;;;;;;;;;;;;;;25.78;44.55;99252.03;5051868;28;19915;-47
2022/06/06 01:19:18;;;;;;;;;;;;;;;25.88;44.55;99243.56;5051171;28;20348;-47
2022/06/06 01:22:03;;;;;;;;;;;;;;;25.64;45.04;99238.53;5041669;28;20435;-47
2022/06/06 01:25:06;;;;;;;;;;;;;;;25.60;45.30;99227.44;5030897;28;20408;-48
2022/06/06 01:27:37;;;;;;;;;;;;;;;25.32;46.40;99229.59;4973968;28;19909;-51
2022/06/06 01:30:07;;;;;;;;;;;;;;;25.38;46.04;99222.09;4989502;28;20009;-46
2022/06/06 01:32:41;;;;;;;;;;;;;;;25.48;46.05;99222.63;5011396;28;19917;-48
2022/06/06 01:35:08;;;;;;;;;;;;;;;25.35;46.62;99215.34;5031494;28;20292;-50
2022/06/06 01:37:33;;;;;;;;;;;;;;;25.30;46.38;99210.88;5031849;28;19955;-50
2022/06/06 01:40:00;;;;;;;;;;;;;;;25.18;46.69;99205.97;5031378;28;20377;-48
2022/06/06 01:42:38;;;;;;;;;;;;;;;24.91;47.32;99206.97;5031257;28;20478;-47
2022/06/06 01:45:04;;;;;;;;;;;;;;;24.94;47.60;99213.69;5031523;28;19920;-48
2022/06/06 01:47:34;;;;;;;;;;;;;;;24.94;48.05;99203.63;5031386;28;19909;-48
2022/06/06 01:50:01;;;;;;;;;;;;;;;25.07;47.38;99209.28;5031171;28;19927;-46
2022/06/06 01:52:26;;;;;;;;;;;;;;;25.01;47.80;99205.88;5031445;28;19909;-47
2022/06/06 01:54:53;;;;;;;;;;;;;;;24.90;47.98;99209.97;5031048;28;19927;-50
2022/06/06 01:57:18;;;;;;;;;;;;;;;24.93;48.13;99212.88;5031414;28;20001;-46
2022/06/06 01:59:43;;;;;;;;;;;;;;;24.93;48.04;99217.53;5030991;28;19987;-47
2022/06/06 02:02:09;;;;;;;;;;;;;;;24.84;48.13;99206.59;5031367;28;19909;-46
2022/06/06 02:04:34;;;;;;;;;;;;;;;24.72;48.12;99209.88;5030873;28;19913;-47
2022/06/06 02:06:59;;;;;;;;;;;;;;;24.76;48.47;99210.06;5030767;28;19982;-48
2022/06/06 02:09:26;;;;;;;;;;;;;;;24.84;48.43;99203.88;5030855;28;19987;-49
2022/06/06 02:11:51;;;;;;;;;;;;;;;24.74;48.56;99210.38;5030711;28;19989;-48
2022/06/06 02:14:16;;;;;;;;;;;;;;;24.68;48.85;99208.91;5030489;28;20048;-47
2022/06/06 02:16:42;;;;;;;;;;;;;;;24.55;49.45;99205.13;5029255;28;19995;-46
2022/06/06 02:19:09;;;;;;;;;;;;;;;24.55;48.63;99194.25;5031309;28;19916;-46
2022/06/06 02:21:34;;;;;;;;;;;;;;;24.53;49.33;99201.91;5030512;28;20310;-47
2022/06/06 02:24:02;;;;;;;;;;;;;;;24.34;50.64;99188.47;5030847;28;20033;-37
2022/06/06 02:26:28;;;;;;;;;;;;;;;24.34;50.10;99188.47;5031119;28;19991;-38
2022/06/06 02:28:53;;;;;;;;;;;;;;;24.35;49.85;99183.81;5031122;28;20278;-47
2022/06/06 02:31:18;;;;;;;;;;;;;;;23.90;51.48;99175.66;5030892;28;20404;-50
2022/06/06 02:33:44;;;;;;;;;;;;;;;24.00;51.42;99173.47;5030880;28;20376;-50
2022/06/06 02:36:11;;;;;;;;;;;;;;;23.83;51.89;99177.97;5031495;28;19909;-47
2022/06/06 02:38:36;;;;;;;;;;;;;;;23.66;52.73;99192.16;5030849;28;19971;-47
2022/06/06 02:41:07;;;;;;;;;;;;;;;23.62;52.72;99187.31;5031047;28;19913;-51
2022/06/06 02:43:37;;;;;;;;;;;;;;;23.77;52.17;99190.81;5030359;28;19924;-47
2022/06/06 02:46:03;;;;;;;;;;;;;;;23.90;51.66;99181.06;5031019;28;20313;-47
2022/06/06 02:48:30;;;;;;;;;;;;;;;24.38;50.56;99189.47;5030900;28;19909;-47
2022/06/06 02:50:56;;;;;;;;;;;;;;;24.18;51.17;99190.75;5031243;28;19936;-47
2022/06/06 02:53:22;;;;;;;;;;;;;;;24.15;51.10;99185.91;5030428;28;20356;-49
2022/06/06 02:55:50;;;;;;;;;;;;;;;23.56;52.61;99196.66;5029282;28;19909;-49
2022/06/06 02:58:15;;;;;;;;;;;;;;;23.50;53.10;99197.09;5030104;28;19940;-49
2022/06/06 03:00:42;;;;;;;;;;;;;;;23.56;53.41;99190.44;5030965;28;20353;-48
2022/06/06 03:03:08;;;;;;;;;;;;;;;23.69;53.32;99192.34;5030342;28;19909;-47
2022/06/06 03:06:02;;;;;;;;;;;;;;;23.94;52.65;99195.66;5030885;28;19918;-49
2022/06/06 03:08:34;;;;;;;;;;;;;;;23.92;52.66;99195.16;5025187;28;20073;-51
2022/06/06 03:11:18;;;;;;;;;;;;;;;23.98;52.58;99192.00;5028952;28;20511;-48
2022/06/06 03:13:52;;;;;;;;;;;;;;;24.03;52.39;99204.69;5029117;28;19963;-47
2022/06/06 03:22:25;;;;;;;;;;;;;;;24.24;51.30;99269.44;5037973;28;19959;-45
2022/06/06 03:24:56;;;;;;;;;;;;;;;24.12;51.25;99325.16;5050234;28;19909;-47
2022/06/06 03:27:23;;;;;;;;;;;;;;;23.86;51.64;99375.69;5050278;28;20511;-47
2022/06/06 03:29:51;;;;;;;;;;;;;;;23.86;50.58;99409.09;5050756;28;19909;-46
2022/06/06 03:32:29;;;;;;;;;;;;;;;23.83;50.94;99428.69;5050637;28;20000;-46
2022/06/06 03:35:13;;;;;;;;;;;;;;;23.15;57.29;99452.59;5041188;28;19956;-46
2022/06/06 03:37:44;;;;;;;;;;;;;;;22.89;61.26;99470.28;5034426;28;19948;-44
2022/06/06 03:40:12;;;;;;;;;;;;;;;22.35;65.87;99489.38;5035081;28;19909;-44
2022/06/06 03:42:38;;;;;;;;;;;;;;;22.18;67.69;99502.50;5034212;28;19996;-45
2022/06/06 03:45:03;;;;;;;;;;;;;;;21.94;69.60;99526.84;5033760;28;20457;-45
2022/06/06 03:47:35;;;;;;;;;;;;;;;21.94;70.12;99562.88;5033817;28;19982;-47
2022/06/06 03:50:18;;;;;;;;;;;;;;;21.71;72.72;99579.84;5052994;28;19959;-46
2022/06/06 03:53:02;;;;;;;;;;;;;;;21.69;73.81;99600.97;5053834;28;20078;-45
2022/06/06 03:55:41;;;;;;;;;;;;;;;21.94;72.46;99606.22;5054181;28;19919;-44
2022/06/06 03:58:08;;;;;;;;;;;;;;;21.93;74.29;99630.88;5054678;28;20119;-44
2022/06/06 04:00:35;;;;;;;;;;;;;;;21.64;75.19;99626.97;5054406;28;19909;-46
2022/06/06 04:03:03;;;;;;;;;;;;;;;21.93;75.29;99637.09;5054256;28;19970;-45
2022/06/06 04:05:34;;;;;;;;;;;;;;;22.15;74.79;99639.38;5053943;28;20003;-43
2022/06/06 04:07:59;;;;;;;;;;;;;;;22.50;72.94;99642.91;5053751;28;19908;-43
2022/06/06 04:10:31;;;;;;;;;;;;;;;22.92;69.86;99635.19;5053722;28;19919;-42
2022/06/06 04:13:03;;;;;;;;;;;;;;;22.93;70.82;99640.31;5053692;28;19908;-44
2022/06/06 04:15:28;;;;;;;;;;;;;;;22.87;71.92;99635.25;5053991;28;19924;-45
2022/06/06 04:17:59;;;;;;;;;;;;;;;22.87;70.35;99629.84;5053768;28;19909;-44
2022/06/06 04:20:24;;;;;;;;;;;;;;;22.54;73.28;99630.44;5053863;28;19913;-44
2022/06/06 04:23:08;;;;;;;;;;;;;;;22.38;73.26;99610.75;5053385;28;20093;-37
2022/06/06 04:25:33;;;;;;;;;;;;;;;22.68;72.42;99598.00;5053345;28;19909;-45
2022/06/06 04:28:12;;;;;;;;;;;;;;;22.67;72.06;99592.88;5045419;28;19909;-43
2022/06/06 04:30:43;;;;;;;;;;;;;;;22.84;70.97;99587.78;5033377;28;19949;-45
2022/06/06 04:33:09;;;;;;;;;;;;;;;22.62;72.69;99575.56;5033961;28;19936;-45
2022/06/06 04:35:43;;;;;;;;;;;;;;;22.50;72.80;99571.63;5033511;28;20345;-45
2022/06/06 04:38:24;;;;;;;;;;;;;;;22.92;70.02;99581.72;5033734;28;20403;-46
2022/06/06 04:41:08;;;;;;;;;;;;;;;23.25;71.07;99573.78;5033443;28;19956;-46
2022/06/06 04:43:39;;;;;;;;;;;;;;;23.05;70.45;99569.41;5033221;28;19909;-44
2022/06/06 04:46:11;;;;;;;;;;;;;;;23.31;70.09;99550.88;5030968;28;20348;-46
2022/06/06 04:48:36;;;;;;;;;;;;;;;22.71;72.86;99526.09;5032395;28;19940;-45
2022/06/06 04:51:02;;;;;;;;;;;;;;;23.01;72.02;99512.16;5031146;28;19956;-44
2022/06/06 04:53:30;;;;;;;;;;;;;;;22.62;73.27;99480.66;5031560;28;19928;-45
2022/06/06 04:55:56;;;;;;;;;;;;;;;22.06;75.07;99454.94;5032290;28;20345;-44
2022/06/06 04:58:22;;;;;;;;;;;;;;;22.06;75.61;99451.41;5031794;28;20315;-44
2022/06/06 05:00:47;;;;;;;;;;;;;;;22.33;74.69;99450.91;5031727;28;19916;-47
2022/06/06 05:03:13;;;;;;;;;;;;;;;22.54;73.59;99426.25;5031458;28;19988;-44
2022/06/06 05:06:07;;;;;;;;;;;;;;;22.45;74.32;99401.69;5031828;28;19913;-48
2022/06/06 05:08:47;;;;;;;;;;;;;;;22.16;74.83;99348.38;5031067;28;19948;-45
2022/06/06 05:11:21;;;;;;;;;;;;;;;21.61;75.31;99304.53;5031973;28;19909;-46
2022/06/06 05:13:49;;;;;;;;;;;;;;;21.91;76.02;99335.09;5031494;28;19913;-44
2022/06/06 05:16:14;;;;;;;;;;;;;;;22.44;73.55;99362.13;5031896;28;19935;-45
2022/06/06 05:18:39;;;;;;;;;;;;;;;22.69;72.22;99392.69;5031605;28;20361;-46
2022/06/06 05:21:19;;;;;;;;;;;;;;;22.22;75.08;99428.50;5031219;28;19990;-45
2022/06/06 05:24:03;;;;;;;;;;;;;;;22.60;73.86;99431.31;5031079;28;20466;-49
2022/06/06 05:26:34;;;;;;;;;;;;;;;22.54;74.59;99432.50;5031397;28;19909;-47
2022/06/06 05:29:02;;;;;;;;;;;;;;;22.79;72.36;99439.50;5031007;28;19909;-46
2022/06/06 05:31:46;;;;;;;;;;;;;;;22.39;73.56;99422.63;5031588;28;19917;-46
2022/06/06 05:34:20;;;;;;;;;;;;;;;22.51;73.70;99416.78;5031298;28;19912;-46
2022/06/06 05:36:45;;;;;;;;;;;;;;;22.86;73.37;99376.72;5031630;28;19909;-45
2022/06/06 05:39:23;;;;;;;;;;;;;;;23.13;71.45;99345.41;5031705;28;19915;-46
2022/06/06 05:41:58;;;;;;;;;;;;;;;23.53;70.45;99343.94;5031383;28;19965;-46
2022/06/06 05:44:33;;;;;;;;;;;;;;;23.30;71.21;99356.53;5031132;28;20373;-48
2022/06/06 05:46:58;;;;;;;;;;;;;;;23.58;70.44;99345.72;5031331;28;19909;-47
2022/06/06 05:49:31;;;;;;;;;;;;;;;23.25;72.40;99350.38;5031177;28;19966;-46
2022/06/06 05:52:04;;;;;;;;;;;;;;;23.71;70.61;99353.09;5031241;28;19920;-46
2022/06/06 05:54:36;;;;;;;;;;;;;;;24.31;69.58;99352.22;5031029;28;20415;-49
2022/06/06 05:57:13;;;;;;;;;;;;;;;24.68;67.08;99344.91;5030601;28;19936;-46
2022/06/06 05:59:44;;;;;;;;;;;;;;;25.47;64.36;99346.28;5030971;28;19909;-48
2022/06/06 06:02:28;;;;;;;;;;;;;;;25.95;63.56;99347.50;5047568;28;19908;-45
2022/06/06 06:05:02;;;;;;;;;;;;;;;26.42;61.13;99341.50;5050752;28;20349;-47
2022/06/06 06:07:38;;;;;;;;;;;;;;;26.42;58.47;99342.31;5050915;28;19908;-46
2022/06/06 06:10:08;;;;;;;;;;;;;;;26.87;56.94;99352.97;5051221;28;19908;-50
2022/06/06 06:12:40;;;;;;;;;;;;;;;26.48;57.40;99359.31;5050690;28;19908;-46
2022/06/06 06:15:13;;;;;;;;;;;;;;;26.51;57.67;99367.69;5050516;28;19920;-48
2022/06/06 06:17:39;;;;;;;;;;;;;;;25.70;61.52;99395.28;5050500;28;19909;-48
2022/06/06 06:20:09;;;;;;;;;;;;;;;25.24;63.83;99415.50;5050407;28;19940;-49
2022/06/06 06:22:37;;;;;;;;;;;;;;;25.19;64.20;99405.53;5033861;28;20395;-48
2022/06/06 06:25:04;;;;;;;;;;;;;;;26.02;62.14;99412.47;5030545;28;19920;-49
2022/06/06 06:27:31;;;;;;;;;;;;;;;26.32;60.94;99402.63;5030433;28;19909;-47
2022/06/06 06:29:57;;;;;;;;;;;;;;;27.09;58.45;99414.81;5030357;28;20386;-51
2022/06/06 06:32:41;;;;;;;;;;;;;;;27.62;55.88;99407.34;5028679;28;19917;-50
2022/06/06 06:35:07;;;;;;;;;;;;;;;27.92;55.92;99403.94;5030173;28;19964;-50
2022/06/06 06:37:38;;;;;;;;;;;;;;;27.87;56.86;99404.84;5030451;28;20009;-47
2022/06/06 06:40:22;;;;;;;;;;;;;;;28.12;56.42;99405.13;5030001;28;19909;-47
2022/06/06 06:43:06;;;;;;;;;;;;;;;28.60;55.20;99410.19;5030251;28;19909;-49
2022/06/06 06:45:43;;;;;;;;;;;;;;;28.72;54.80;99397.72;5030201;28;19917;-50
2022/06/06 06:48:13;;;;;;;;;;;;;;;28.86;54.15;99400.97;5030019;28;19943;-51
2022/06/06 06:50:47;;;;;;;;;;;;;;;28.80;52.60;99408.59;5030402;28;20218;-47
2022/06/06 06:53:12;;;;;;;;;;;;;;;29.34;51.50;99418.00;5030131;28;19917;-48
2022/06/06 06:55:55;;;;;;;;;;;;;;;29.71;51.11;99427.13;5028843;28;19909;-46
2022/06/06 06:58:26;;;;;;;;;;;;;;;30.01;50.13;99419.56;5029528;28;19909;-51
2022/06/06 07:00:54;;;;;;;;;;;;;;;30.11;49.82;99433.97;5029962;28;20356;-50
2022/06/06 07:09:27;;;;;;;;;;;;;;;29.14;52.28;99467.00;5033358;28;19932;-49
2022/06/06 07:12:19;;;;;;;;;;;;;;;28.59;53.72;99462.53;5034218;28;19909;-49
2022/06/06 07:14:47;;;;;;;;;;;;;;;28.00;54.37;99466.75;5025005;28;19913;-46
2022/06/06 07:17:13;;;;;;;;;;;;;;;26.63;59.92;99469.97;5035262;28;19917;-52
2022/06/06 07:19:45;;;;;;;;;;;;;;;26.78;59.15;99469.53;5034932;28;19952;-50
2022/06/06 07:22:11;;;;;;;;;;;;;;;27.03;57.79;99472.59;5034593;28;19917;-49
2022/06/06 07:24:37;;;;;;;;;;;;;;;26.35;60.20;99492.00;5035130;28;19913;-50
2022/06/06 07:27:02;;;;;;;;;;;;;;;26.51;60.72;99504.09;5049317;28;20427;-51
2022/06/06 07:29:28;;;;;;;;;;;;;;;25.98;61.59;99510.41;5041613;28;19999;-50
2022/06/06 07:31:56;;;;;;;;;;;;;;;25.57;62.86;99530.47;5041567;28;19959;-50
2022/06/06 07:34:21;;;;;;;;;;;;;;;25.47;64.28;99547.03;5048094;28;20034;-50
2022/06/06 07:37:05;;;;;;;;;;;;;;;25.85;61.72;99555.66;5037159;28;19913;-52
2022/06/06 07:39:34;;;;;;;;;;;;;;;26.13;60.35;99536.47;5046536;28;19908;-50
2022/06/06 07:42:18;;;;;;;;;;;;;;;26.25;60.81;99544.09;5042405;28;19971;-47
2022/06/06 07:44:54;;;;;;;;;;;;;;;26.81;59.52;99515.28;5050524;28;19913;-48
2022/06/06 07:47:40;;;;;;;;;;;;;;;27.38;57.93;99506.25;5041211;28;19956;-51
2022/06/06 07:50:25;;;;;;;;;;;;;;;26.75;58.12;99511.09;5040214;28;19909;-48
2022/06/06 07:52:55;;;;;;;;;;;;;;;26.72;58.36;99500.81;5049377;28;19983;-50
2022/06/06 07:55:27;;;;;;;;;;;;;;;27.36;56.94;99508.50;5036087;28;20023;-51
2022/06/06 07:57:52;;;;;;;;;;;;;;;27.77;56.29;99509.09;5042633;28;20426;-50
2022/06/06 08:00:22;;;;;;;;;;;;;;;27.56;56.96;99496.09;5043974;28;19912;-47
2022/06/06 08:03:07;;;;;;;;;;;;;;;26.91;58.04;99445.94;5043162;28;20424;-50
2022/06/06 08:05:51;;;;;;;;;;;;;;;26.09;61.69;99416.34;5039102;28;19913;-45
2022/06/06 08:08:23;;;;;;;;;;;;;;;25.22;63.47;99428.59;5034262;28;20369;-49
2022/06/06 08:10:49;;;;;;;;;;;;;;;25.86;61.71;99458.38;5033754;28;20004;-47
2022/06/06 08:13:28;;;;;;;;;;;;;;;26.24;60.89;99464.19;5032869;28;19958;-46
2022/06/06 08:16:18;;;;;;;;;;;;;;;26.55;59.61;99479.72;5033201;28;20316;-45
2022/06/06 08:18:47;;;;;;;;;;;;;;;26.63;59.09;99491.78;5032514;28;19909;-45
2022/06/06 08:21:35;;;;;;;;;;;;;;;26.89;59.95;99492.66;5032655;28;20369;-47
2022/06/06 08:24:02;;;;;;;;;;;;;;;27.22;59.98;99491.41;5026961;28;19963;-48
2022/06/06 08:26:29;;;;;;;;;;;;;;;27.39;61.39;99493.38;5032497;28;19967;-45
2022/06/06 08:28:54;;;;;;;;;;;;;;;27.38;61.84;99492.59;5033404;28;20120;-48
2022/06/06 08:31:20;;;;;;;;;;;;;;;27.45;62.35;99506.53;5033504;28;19924;-48
2022/06/06 08:33:46;;;;;;;;;;;;;;;27.62;61.97;99513.94;5032714;28;20269;-48
2022/06/06 08:36:15;;;;;;;;;;;;;;;27.73;61.31;99511.66;5032435;28;19905;-48
2022/06/06 08:38:40;;;;;;;;;;;;;;;28.17;60.08;99515.13;5032110;28;19913;-46
2022/06/06 08:41:21;;;;;;;;;;;;;;;28.45;59.75;99521.00;5031405;28;19909;-49
2022/06/06 08:44:13;;;;;;;;;;;;;;;27.97;57.72;99515.81;5031859;28;20365;-49
2022/06/06 08:46:47;;;;;;;;;;;;;;;28.12;57.26;99523.53;5030563;28;19909;-46
2022/06/06 08:50:44;;;;;;;;;;;;;;;27.92;58.80;99529.69;5030688;28;19909;-47
2022/06/06 08:52:06;;;;;;;;;;;;;;;28.63;57.25;99556.53;5030732;28;19913;-46
2022/06/06 08:54:39;;;;;;;;;;;;;;;28.27;57.65;99557.75;5030853;28;19917;-46
2022/06/06 08:57:23;;;;;;;;;;;;;;;28.35;57.58;99562.41;5030344;28;20337;-46
2022/06/06 09:00:01;;;;;;;;;;;;;;;28.22;57.11;99536.06;5031391;28;19995;-47
2022/06/06 09:02:32;;;;;;;;;;;;;;;28.60;56.49;99510.66;5031677;28;19999;-49
2022/06/06 09:05:03;;;;;;;;;;;;;;;28.77;54.56;99483.19;5031607;28;19967;-48
2022/06/06 09:07:38;;;;;;;;;;;;;;;28.79;54.23;99472.72;5031962;28;19909;-46
2022/06/06 09:10:03;;;;;;;;;;;;;;;28.56;51.50;99438.53;5031996;28;20365;-47
2022/06/06 09:12:34;;;;;;;;;;;;;;;27.68;54.23;99430.66;5031788;28;19909;-45
2022/06/06 09:15:06;;;;;;;;;;;;;;;27.08;55.97;99462.34;5031916;28;19913;-45
2022/06/06 09:17:35;;;;;;;;;;;;;;;27.25;57.50;99491.59;5031382;28;19920;-46
2022/06/06 09:20:23;;;;;;;;;;;;;;;27.44;57.59;99502.22;5031962;28;19909;-49
2022/06/06 09:22:56;;;;;;;;;;;;;;;27.68;58.50;99504.47;5046793;28;20285;-48
2022/06/06 09:25:39;;;;;;;;;;;;;;;27.98;59.14;99501.84;5051444;28;20461;-46
2022/06/06 09:28:13;;;;;;;;;;;;;;;28.21;58.64;99494.19;5050824;28;19967;-45
2022/06/06 09:30:39;;;;;;;;;;;;;;;28.54;57.64;99490.06;5050552;28;19948;-47
2022/06/06 09:33:23;;;;;;;;;;;;;;;28.76;55.24;99478.84;5051162;28;19956;-49
2022/06/06 09:35:51;;;;;;;;;;;;;;;28.94;53.42;99478.72;5051220;28;19913;-49
2022/06/06 09:38:25;;;;;;;;;;;;;;;28.92;53.59;99479.06;5051081;28;20463;-47
2022/06/06 09:40:50;;;;;;;;;;;;;;;28.60;54.15;99481.34;5050928;28;20002;-47
2022/06/06 09:43:29;;;;;;;;;;;;;;;28.23;55.06;99467.31;5050831;28;19909;-47
2022/06/06 09:46:00;;;;;;;;;;;;;;;27.72;55.82;99476.47;5051242;28;19912;-48
2022/06/06 09:48:26;;;;;;;;;;;;;;;27.97;55.70;99474.81;5051094;28;20126;-46
2022/06/06 09:50:57;;;;;;;;;;;;;;;28.11;54.01;99477.38;5050826;28;20400;-48
2022/06/06 09:53:34;;;;;;;;;;;;;;;28.23;55.51;99474.72;5051039;28;20015;-49
2022/06/06 09:59:02;;;;;;;;;;;;;;;28.68;53.39;99492.59;5050459;28;19959;-49
2022/06/06 10:01:33;;;;;;;;;;;;;;;28.91;54.17;99495.84;5049991;28;19944;-52
2022/06/06 10:04:01;;;;;;;;;;;;;;;29.17;52.34;99512.13;5050475;28;20329;-49
2022/06/06 10:06:26;;;;;;;;;;;;;;;29.43;52.97;99526.41;5050860;28;20000;-49
2022/06/06 10:08:51;;;;;;;;;;;;;;;29.52;52.72;99518.09;5050639;28;19999;-52
2022/06/06 10:11:29;;;;;;;;;;;;;;;29.32;51.44;99497.00;5049706;28;19909;-48
2022/06/06 10:13:57;;;;;;;;;;;;;;;28.76;50.19;99525.38;5049833;28;20423;-46
2022/06/06 10:16:54;;;;;;;;;;;;;;;28.81;50.93;99497.03;5050092;28;19909;-48
2022/06/06 10:19:22;;;;;;;;;;;;;;;29.01;51.59;99479.00;5027179;28;20074;-50
2022/06/06 10:22:06;;;;;;;;;;;;;;;28.94;50.18;99451.34;5039211;28;19920;-51
2022/06/06 10:24:31;;;;;;;;;;;;;;;28.97;49.90;99469.84;5029737;28;20329;-48
2022/06/06 10:27:00;;;;;;;;;;;;;;;28.71;51.33;99498.22;5030112;28;19951;-48
2022/06/06 10:32:42;;;;;;;;;;;;;;;28.91;53.65;99515.00;5029661;28;19923;-49
2022/06/06 10:35:20;;;;;;;;;;;;;;;28.91;53.98;99547.84;5029671;28;19994;-50
2022/06/06 10:38:04;;;;;;;;;;;;;;;28.91;53.52;99554.13;5029955;28;20355;-50
2022/06/06 10:40:44;;;;;;;;;;;;;;;28.99;53.46;99547.00;5030015;28;19909;-47
2022/06/06 10:43:09;;;;;;;;;;;;;;;29.09;52.64;99543.84;5028974;28;19983;-49
2022/06/06 10:45:46;;;;;;;;;;;;;;;29.10;52.93;99550.97;5030577;28;20325;-47
2022/06/06 10:48:30;;;;;;;;;;;;;;;29.20;52.96;99550.59;5030317;28;19913;-47
2022/06/06 10:53:57;;;;;;;;;;;;;;;28.51;54.94;99578.28;5029609;28;19928;-51
2022/06/06 10:56:46;;;;;;;;;;;;;;;28.05;56.70;99577.91;5030088;28;19971;-49
2022/06/06 10:59:23;;;;;;;;;;;;;;;27.74;57.32;99578.91;5019468;28;19909;-47
2022/06/06 11:02:09;;;;;;;;;;;;;;;26.78;59.79;99578.69;5029650;28;19913;-50
2022/06/06 11:04:40;;;;;;;;;;;;;;;25.66;62.63;99572.19;5018511;28;19939;-48
2022/06/06 11:07:14;;;;;;;;;;;;;;;25.93;61.75;99574.06;5030102;28;19913;-49
2022/06/06 11:09:58;;;;;;;;;;;;;;;25.98;61.06;99573.09;5030080;28;20423;-51
2022/06/06 11:12:26;;;;;;;;;;;;;;;25.63;60.38;99564.66;5029747;28;20354;-48
2022/06/06 11:14:52;;;;;;;;;;;;;;;26.04;59.19;99547.31;5029732;28;19920;-51
2022/06/06 11:17:18;;;;;;;;;;;;;;;26.16;59.45;99533.16;5029720;28;19940;-48
2022/06/06 11:20:03;;;;;;;;;;;;;;;25.93;58.67;99526.88;5029463;28;19916;-47
2022/06/06 11:22:33;;;;;;;;;;;;;;;25.95;58.01;99505.59;5045069;28;19974;-51
2022/06/06 11:25:05;;;;;;;;;;;;;;;26.18;57.03;99502.81;5049195;28;20393;-51
2022/06/06 11:27:49;;;;;;;;;;;;;;;26.36;56.19;99514.63;5049646;28;19915;-47
2022/06/06 11:30:16;;;;;;;;;;;;;;;26.08;56.66;99531.16;5049916;28;19913;-51
2022/06/06 11:32:59;;;;;;;;;;;;;;;26.06;56.34;99534.19;5048982;28;19916;-48
2022/06/06 11:35:43;;;;;;;;;;;;;;;24.95;59.79;99536.44;5049278;28;19917;-48
2022/06/06 11:38:11;;;;;;;;;;;;;;;24.26;63.56;99533.66;5049567;28;19915;-51
2022/06/06 11:40:52;;;;;;;;;;;;;;;24.33;65.07;99531.34;5049615;28;19915;-52
2022/06/06 11:43:36;;;;;;;;;;;;;;;24.99;63.28;99518.38;5049106;28;19920;-48
2022/06/06 11:46:20;;;;;;;;;;;;;;;24.90;63.84;99506.59;5049452;28;19943;-51
2022/06/06 11:48:45;;;;;;;;;;;;;;;25.63;60.55;99499.25;5049416;28;20475;-51
2022/06/06 11:51:25;;;;;;;;;;;;;;;25.83;59.81;99487.03;5049693;28;20000;-51
2022/06/06 11:54:03;;;;;;;;;;;;;;;25.45;61.12;99481.19;5050124;28;20415;-50
2022/06/06 11:56:46;;;;;;;;;;;;;;;26.14;59.03;99483.53;5053317;28;19970;-47
2022/06/06 11:59:17;;;;;;;;;;;;;;;26.36;58.49;99477.22;5052682;28;19992;-49
2022/06/06 12:01:52;;;;;;;;;;;;;;;26.63;54.70;99475.44;5053116;28;19909;-47
2022/06/06 12:04:37;;;;;;;;;;;;;;;27.04;54.30;99477.75;5053074;28;20299;-48
2022/06/06 12:07:11;;;;;;;;;;;;;;;27.48;53.19;99473.13;5053167;28;20101;-48
2022/06/06 12:09:36;;;;;;;;;;;;;;;27.72;52.69;99463.63;5052409;28;20046;-48
2022/06/06 12:12:17;;;;;;;;;;;;;;;27.51;52.40;99468.94;5053014;28;20213;-49
2022/06/06 12:14:48;;;;;;;;;;;;;;;27.60;51.43;99471.66;5052748;28;19919;-49
2022/06/06 12:17:33;;;;;;;;;;;;;;;27.62;51.24;99477.59;5052828;28;19908;-52
2022/06/06 12:20:09;;;;;;;;;;;;;;;27.50;52.09;99478.25;5052275;28;19909;-47
2022/06/06 12:22:53;;;;;;;;;;;;;;;27.77;51.05;99473.56;5035601;28;19959;-50
2022/06/06 12:25:21;;;;;;;;;;;;;;;27.82;49.79;99484.34;5032782;28;19952;-47
2022/06/06 12:27:46;;;;;;;;;;;;;;;28.28;49.27;99490.97;5032758;28;19915;-46
2022/06/06 12:30:30;;;;;;;;;;;;;;;28.55;48.30;99494.44;5032649;28;19992;-50
2022/06/06 12:32:58;;;;;;;;;;;;;;;28.79;48.38;99497.34;5032582;28;20189;-48
2022/06/06 12:35:24;;;;;;;;;;;;;;;28.69;48.85;99496.91;5032426;28;19919;-47
2022/06/06 12:38:08;;;;;;;;;;;;;;;28.94;48.28;99487.75;5033048;28;20008;-48
2022/06/06 12:40:33;;;;;;;;;;;;;;;29.19;47.29;99476.97;5032035;28;19917;-47
2022/06/06 12:43:04;;;;;;;;;;;;;;;29.18;47.02;99484.38;5032383;28;19963;-49
2022/06/06 12:45:29;;;;;;;;;;;;;;;29.39;46.23;99475.34;5032190;28;19909;-47
2022/06/06 12:48:27;;;;;;;;;;;;;;;29.34;45.38;99468.16;5032450;28;19919;-49
2022/06/06 12:51:14;;;;;;;;;;;;;;;29.27;45.35;99470.63;5019698;28;19909;-49
2022/06/06 12:53:40;;;;;;;;;;;;;;;29.76;44.31;99473.56;5031778;28;19995;-47
2022/06/06 12:56:18;;;;;;;;;;;;;;;29.55;44.39;99470.03;5032081;28;19912;-46
2022/06/06 12:58:45;;;;;;;;;;;;;;;29.81;43.33;99467.06;5032118;28;19908;-50
2022/06/06 13:01:38;;;;;;;;;;;;;;;29.74;42.75;99462.16;5032110;28;19913;-47
2022/06/06 13:04:06;;;;;;;;;;;;;;;29.44;43.20;99467.72;5031837;28;19908;-48
2022/06/06 13:06:34;;;;;;;;;;;;;;;29.72;42.34;99475.38;5031154;28;20335;-46
2022/06/06 13:09:12;;;;;;;;;;;;;;;29.27;43.10;99461.59;5032064;28;19909;-47
2022/06/06 13:11:49;;;;;;;;;;;;;;;29.36;42.06;99467.78;5031737;28;19909;-48
2022/06/06 13:14:17;;;;;;;;;;;;;;;29.28;42.00;99465.94;5031556;28;20373;-48
2022/06/06 13:16:42;;;;;;;;;;;;;;;29.83;41.05;99462.03;5031587;28;19909;-49
2022/06/06 13:19:26;;;;;;;;;;;;;;;30.67;40.19;99464.38;5032248;28;20365;-50
2022/06/06 13:22:08;;;;;;;;;;;;;;;31.09;39.89;99475.13;5042603;28;19909;-50
2022/06/06 13:24:46;;;;;;;;;;;;;;;31.55;38.67;99461.91;5051484;28;19945;-47
2022/06/06 13:27:18;;;;;;;;;;;;;;;31.10;39.28;99456.69;5051667;28;19916;-51
2022/06/06 13:29:46;;;;;;;;;;;;;;;32.08;38.17;99456.25;5051146;28;19923;-47
2022/06/06 13:32:17;;;;;;;;;;;;;;;31.24;38.41;99445.28;5050778;28;20297;-52
2022/06/06 13:34:42;;;;;;;;;;;;;;;30.81;39.21;99447.56;5051403;28;19920;-48
2022/06/06 13:37:23;;;;;;;;;;;;;;;31.37;39.27;99452.34;5051160;28;19909;-47